s328 at 2026-08-31
00:13:47 UTCDEBUG [2026-08-31 00:13:47] ----- wrcc_downloadData() -----
TRACE [2026-08-31 00:13:47] Downloading WRCC data for unitID s328 ...
DEBUG [2026-08-31 00:13:48] ----- wrcc_parseData() -----
DEBUG [2026-08-31 00:13:48] ----- wrcc_identifyDataFormat() -----
DEBUG [2026-08-31 00:13:48] ----- addClustering() -----
DEBUG [2026-08-31 00:13:48] ----- wrcc_qualityControl() -----
TRACE [2026-08-31 00:13:48] Applying EBAM QC rules ...
DEBUG [2026-08-31 00:13:48] ----- wrcc_EBAMQualityControl() -----
TRACE [2026-08-31 00:13:48] Flow has 0 missing or out of range values
TRACE [2026-08-31 00:13:48] AT has 0 missing or out of range values
TRACE [2026-08-31 00:13:48] RHi has 0 missing or out of range values
TRACE [2026-08-31 00:13:48] Conc has 0 missing or out of range values
TRACE [2026-08-31 00:13:48] datetime has 0 missing or out of range values
TRACE [2026-08-31 00:13:48] Retaining 145 rows of measurements; 0 bad rows flagged
DateTime,GPSLat,GPSLon,Type,SerialNumber,ConcRT,Misc1,AvAirFlw,AvAirTemp,RelHumidity,BaromPress,SensorIntAT,SensorIntRH,WindSpeed,WindDir,BatteryVoltage,Alarm,monitorName,monitorType,QCFlag_anyBad,QCFlag_reasonCode,QCFlag_badLon,QCFlag_badLat,QCFlag_badType,QCFlag_badFlow,QCFlag_badAT,QCFlag_badRHi,QCFlag_badConcHr,QCFlag_badDateAndTime,QCFlag_duplicateHr,datetime,clusterLon,clusterLat,clusterID
2608250000,35.671528,-105.955544,0,2375,-4.999,0.002,16.7,28.2,1,NA,39.8,8,0.5,279,14.1,0,Smoke USFS R3-28,EBAM,FALSE,NA,FALSE,FALSE,FALSE,FALSE,FALSE,FALSE,FALSE,FALSE,FALSE,2026-08-25T00:00:00Z,-105.955574,35.671474,1
2608250100,35.671528,-105.955544,0,2375,-4.999,-0.004999,16.7,28.4,1,NA,38.2,9,1.1,255,14.2,0,Smoke USFS R3-28,EBAM,FALSE,NA,FALSE,FALSE,FALSE,FALSE,FALSE,FALSE,FALSE,FALSE,FALSE,2026-08-25T01:00:00Z,-105.955574,35.671474,1
2608250200,35.671528,-105.955544,0,2375,-4.999,-0.004999,16.7,24.2,0,NA,33.8,12,0.3,45,14.2,0,Smoke USFS R3-28,EBAM,FALSE,NA,FALSE,FALSE,FALSE,FALSE,FALSE,FALSE,FALSE,FALSE,FALSE,2026-08-25T02:00:00Z,-105.955574,35.671474,1
2608250300,35.671528,-105.955544,0,2375,-4.999,-0.004999,16.7,22.9,1,NA,30.4,15,0.9,29,14.2,0,Smoke USFS R3-28,EBAM,FALSE,NA,FALSE,FALSE,FALSE,FALSE,FALSE,FALSE,FALSE,FALSE,FALSE,2026-08-25T03:00:00Z,-105.955574,35.671474,1
2608250400,35.671528,-105.955544,0,2375,-4.999,-0.004999,16.7,21.8,0,NA,28.4,16,1.8,70,14.2,0,Smoke USFS R3-28,EBAM,FALSE,NA,FALSE,FALSE,FALSE,FALSE,FALSE,FALSE,FALSE,FALSE,FALSE,2026-08-25T04:00:00Z,-105.955574,35.671474,1
2608250500,35.671528,-105.955544,0,2375,-4.999,-0.004999,16.7,21.1,0,NA,27.4,17,1.8,67,14.2,0,Smoke USFS R3-28,EBAM,FALSE,NA,FALSE,FALSE,FALSE,FALSE,FALSE,FALSE,FALSE,FALSE,FALSE,2026-08-25T05:00:00Z,-105.955574,35.671474,1
2608250600,35.671528,-105.955544,0,2375,-4.999,-0.004999,16.7,20.5,0,NA,26.8,17,2.2,67,14.2,0,Smoke USFS R3-28,EBAM,FALSE,NA,FALSE,FALSE,FALSE,FALSE,FALSE,FALSE,FALSE,FALSE,FALSE,2026-08-25T06:00:00Z,-105.955574,35.671474,1
2608250700,35.671528,-105.955544,0,2375,29,-0.004999,16.7,19.6,0,NA,26.1,19,1.3,53,14.3,0,Smoke USFS R3-28,EBAM,FALSE,NA,FALSE,FALSE,FALSE,FALSE,FALSE,FALSE,FALSE,FALSE,FALSE,2026-08-25T07:00:00Z,-105.955574,35.671474,1
2608250800,35.671528,-105.955544,0,2375,-2.999,0.055,16.7,19.4,0,NA,25.6,18,1.3,47,14.2,0,Smoke USFS R3-28,EBAM,FALSE,NA,FALSE,FALSE,FALSE,FALSE,FALSE,FALSE,FALSE,FALSE,FALSE,2026-08-25T08:00:00Z,-105.955574,35.671474,1
2608250900,35.671528,-105.955544,0,2375,-4.999,0.004,16.7,17.5,1,NA,24.5,21,0.8,61,14.2,0,Smoke USFS R3-28,EBAM,FALSE,NA,FALSE,FALSE,FALSE,FALSE,FALSE,FALSE,FALSE,FALSE,FALSE,2026-08-25T09:00:00Z,-105.955574,35.671474,1
2608251000,35.671528,-105.955544,0,2375,12,-0.001999,16.7,17,0,NA,23.3,22,0.9,68,14.2,0,Smoke USFS R3-28,EBAM,FALSE,NA,FALSE,FALSE,FALSE,FALSE,FALSE,FALSE,FALSE,FALSE,FALSE,2026-08-25T10:00:00Z,-105.955574,35.671474,1
2608251100,35.671528,-105.955544,0,2375,-4.999,-0.004999,16.7,16.2,0,NA,22.7,24,0.5,36,14.2,0,Smoke USFS R3-28,EBAM,FALSE,NA,FALSE,FALSE,FALSE,FALSE,FALSE,FALSE,FALSE,FALSE,FALSE,2026-08-25T11:00:00Z,-105.955574,35.671474,1
2608251200,35.671528,-105.955544,0,2375,-4.999,-0.004999,16.7,15.8,0,NA,22.2,24,0.8,73,14.2,0,Smoke USFS R3-28,EBAM,FALSE,NA,FALSE,FALSE,FALSE,FALSE,FALSE,FALSE,FALSE,FALSE,FALSE,2026-08-25T12:00:00Z,-105.955574,35.671474,1
2608251300,35.671528,-105.955544,0,2375,7,-0.004999,16.7,15.4,0,NA,21.8,26,0.8,68,14.2,0,Smoke USFS R3-28,EBAM,FALSE,NA,FALSE,FALSE,FALSE,FALSE,FALSE,FALSE,FALSE,FALSE,FALSE,2026-08-25T13:00:00Z,-105.955574,35.671474,1
2608251400,35.671528,-105.955544,0,2375,12,-0.004999,16.7,20.4,0,NA,27,18,0.6,94,14.2,0,Smoke USFS R3-28,EBAM,FALSE,NA,FALSE,FALSE,FALSE,FALSE,FALSE,FALSE,FALSE,FALSE,FALSE,2026-08-25T14:00:00Z,-105.955574,35.671474,1
2608251500,35.671528,-105.955544,0,2375,43,0.033,16.7,24.7,1,NA,35.5,11,0.5,52,14.2,0,Smoke USFS R3-28,EBAM,FALSE,NA,FALSE,FALSE,FALSE,FALSE,FALSE,FALSE,FALSE,FALSE,FALSE,2026-08-25T15:00:00Z,-105.955574,35.671474,1
2608251600,35.671528,-105.955544,0,2375,-4.999,0.038,16.7,25.7,1,NA,40.5,9,1.3,283,14.2,0,Smoke USFS R3-28,EBAM,FALSE,NA,FALSE,FALSE,FALSE,FALSE,FALSE,FALSE,FALSE,FALSE,FALSE,2026-08-25T16:00:00Z,-105.955574,35.671474,1
2608251700,35.671528,-105.955544,0,2375,1,0.027,16.7,27,1,NA,42,8,1.6,290,14.2,0,Smoke USFS R3-28,EBAM,FALSE,NA,FALSE,FALSE,FALSE,FALSE,FALSE,FALSE,FALSE,FALSE,FALSE,2026-08-25T17:00:00Z,-105.955574,35.671474,1
2608251800,35.671528,-105.955544,0,2375,29,0.002,16.7,30.3,1,NA,44.9,6,1.2,351,14.2,0,Smoke USFS R3-28,EBAM,FALSE,NA,FALSE,FALSE,FALSE,FALSE,FALSE,FALSE,FALSE,FALSE,FALSE,2026-08-25T18:00:00Z,-105.955574,35.671474,1
2608251900,35.671528,-105.955544,0,2375,-4.999,0.015,16.7,30.9,1,NA,46.5,5,1.4,271,14.2,0,Smoke USFS R3-28,EBAM,FALSE,NA,FALSE,FALSE,FALSE,FALSE,FALSE,FALSE,FALSE,FALSE,FALSE,2026-08-25T19:00:00Z,-105.955574,35.671474,1
2608252000,35.671528,-105.955544,0,2375,6,0,16.7,32.2,1,NA,47.3,4,1.8,315,14.2,0,Smoke USFS R3-28,EBAM,FALSE,NA,FALSE,FALSE,FALSE,FALSE,FALSE,FALSE,FALSE,FALSE,FALSE,2026-08-25T20:00:00Z,-105.955574,35.671474,1
2608252100,35.671528,-105.955544,0,2375,40,-0.003999,16.7,32.9,1,NA,49.2,4,2.3,284,14.1,0,Smoke USFS R3-28,EBAM,FALSE,NA,FALSE,FALSE,FALSE,FALSE,FALSE,FALSE,FALSE,FALSE,FALSE,2026-08-25T21:00:00Z,-105.955574,35.671474,1
2608252200,35.671505,-105.955528,0,2375,-4.999,-0.001999,16.7,31.9,1,NA,45.7,5,2.4,46,14.2,0,Smoke USFS R3-28,EBAM,FALSE,NA,FALSE,FALSE,FALSE,FALSE,FALSE,FALSE,FALSE,FALSE,FALSE,2026-08-25T22:00:00Z,-105.955574,35.671474,1
2608252300,35.671505,-105.955528,0,2375,-4.999,-0.004999,16.7,31.7,1,NA,46.2,4,1.6,56,14.1,0,Smoke USFS R3-28,EBAM,FALSE,NA,FALSE,FALSE,FALSE,FALSE,FALSE,FALSE,FALSE,FALSE,FALSE,2026-08-25T23:00:00Z,-105.955574,35.671474,1
2608260000,35.671505,-105.955528,0,2375,-4.999,0.002,16.7,31.2,1,NA,43.1,4,0.9,336,14.2,0,Smoke USFS R3-28,EBAM,FALSE,NA,FALSE,FALSE,FALSE,FALSE,FALSE,FALSE,FALSE,FALSE,FALSE,2026-08-26T00:00:00Z,-105.955574,35.671474,1
2608260100,35.671505,-105.955528,0,2375,-4.999,-0.004999,16.7,31,1,NA,43.3,4,1,284,14.2,0,Smoke USFS R3-28,EBAM,FALSE,NA,FALSE,FALSE,FALSE,FALSE,FALSE,FALSE,FALSE,FALSE,FALSE,2026-08-26T01:00:00Z,-105.955574,35.671474,1
2608260200,35.671505,-105.955528,0,2375,-4.999,-0.004999,16.7,25.8,1,NA,37.8,7,0.3,330,14.1,0,Smoke USFS R3-28,EBAM,FALSE,NA,FALSE,FALSE,FALSE,FALSE,FALSE,FALSE,FALSE,FALSE,FALSE,2026-08-26T02:00:00Z,-105.955574,35.671474,1
2608260300,35.671505,-105.955528,0,2375,-4.999,-0.004999,16.7,24.3,0,NA,32.6,10,1.3,68,14.2,0,Smoke USFS R3-28,EBAM,FALSE,NA,FALSE,FALSE,FALSE,FALSE,FALSE,FALSE,FALSE,FALSE,FALSE,2026-08-26T03:00:00Z,-105.955574,35.671474,1
2608260400,35.671505,-105.955528,0,2375,-4.999,-0.004999,16.7,23.5,0,NA,30.9,13,0.7,62,14.2,0,Smoke USFS R3-28,EBAM,FALSE,NA,FALSE,FALSE,FALSE,FALSE,FALSE,FALSE,FALSE,FALSE,FALSE,2026-08-26T04:00:00Z,-105.955574,35.671474,1
2608260500,35.671505,-105.955528,0,2375,-4.999,-0.004999,16.7,24.1,0,NA,31,14,1.3,212,14.2,0,Smoke USFS R3-28,EBAM,FALSE,NA,FALSE,FALSE,FALSE,FALSE,FALSE,FALSE,FALSE,FALSE,FALSE,2026-08-26T05:00:00Z,-105.955574,35.671474,1
2608260600,35.671505,-105.955528,0,2375,-4.999,-0.004999,16.7,23,0,NA,30,15,1.3,81,14.2,0,Smoke USFS R3-28,EBAM,FALSE,NA,FALSE,FALSE,FALSE,FALSE,FALSE,FALSE,FALSE,FALSE,FALSE,2026-08-26T06:00:00Z,-105.955574,35.671474,1
2608260700,35.671505,-105.955528,0,2375,9,-0.004999,16.7,21.7,0,NA,28.5,16,0.8,23,14.2,0,Smoke USFS R3-28,EBAM,FALSE,NA,FALSE,FALSE,FALSE,FALSE,FALSE,FALSE,FALSE,FALSE,FALSE,2026-08-26T07:00:00Z,-105.955574,35.671474,1
2608260800,35.671505,-105.955528,0,2375,3,0.035,16.7,20.5,0,NA,28.3,16,0.3,348,14.2,0,Smoke USFS R3-28,EBAM,FALSE,NA,FALSE,FALSE,FALSE,FALSE,FALSE,FALSE,FALSE,FALSE,FALSE,2026-08-26T08:00:00Z,-105.955574,35.671474,1
2608260900,35.671505,-105.955528,0,2375,-4.999,0.005,16.7,19.2,0,NA,26.4,20,0.5,341,14.2,0,Smoke USFS R3-28,EBAM,FALSE,NA,FALSE,FALSE,FALSE,FALSE,FALSE,FALSE,FALSE,FALSE,FALSE,2026-08-26T09:00:00Z,-105.955574,35.671474,1
2608261000,35.671505,-105.955528,0,2375,-4.999,-0.004999,16.7,19.9,0,NA,25.7,21,2.1,105,14.2,0,Smoke USFS R3-28,EBAM,FALSE,NA,FALSE,FALSE,FALSE,FALSE,FALSE,FALSE,FALSE,FALSE,FALSE,2026-08-26T10:00:00Z,-105.955574,35.671474,1
2608261100,35.671505,-105.955528,0,2375,-4.999,-0.004999,16.7,20.4,0,NA,26.1,23,4.3,95,14.2,0,Smoke USFS R3-28,EBAM,FALSE,NA,FALSE,FALSE,FALSE,FALSE,FALSE,FALSE,FALSE,FALSE,FALSE,2026-08-26T11:00:00Z,-105.955574,35.671474,1
2608261200,35.671505,-105.955528,0,2375,-4.999,0,16.7,19.4,0,NA,25.9,23,1.4,123,14.2,0,Smoke USFS R3-28,EBAM,FALSE,NA,FALSE,FALSE,FALSE,FALSE,FALSE,FALSE,FALSE,FALSE,FALSE,2026-08-26T12:00:00Z,-105.955574,35.671474,1
2608261300,35.671505,-105.955528,0,2375,-4.999,-0.004999,16.7,18.4,0,NA,25.1,24,0.7,59,14.2,0,Smoke USFS R3-28,EBAM,FALSE,NA,FALSE,FALSE,FALSE,FALSE,FALSE,FALSE,FALSE,FALSE,FALSE,2026-08-26T13:00:00Z,-105.955574,35.671474,1
2608261400,35.671505,-105.955528,0,2375,35,-0.004999,16.7,21.6,0,NA,28.9,19,0.4,352,14.2,0,Smoke USFS R3-28,EBAM,FALSE,NA,FALSE,FALSE,FALSE,FALSE,FALSE,FALSE,FALSE,FALSE,FALSE,2026-08-26T14:00:00Z,-105.955574,35.671474,1
2608261500,35.671505,-105.955528,0,2375,34,0.024,16.7,21.6,1,NA,33.2,15,2.2,268,14.2,0,Smoke USFS R3-28,EBAM,FALSE,NA,FALSE,FALSE,FALSE,FALSE,FALSE,FALSE,FALSE,FALSE,FALSE,2026-08-26T15:00:00Z,-105.955574,35.671474,1
2608261600,35.671505,-105.955528,0,2375,19,0.016,16.7,24.3,1,NA,36.3,13,0.8,267,14.2,0,Smoke USFS R3-28,EBAM,FALSE,NA,FALSE,FALSE,FALSE,FALSE,FALSE,FALSE,FALSE,FALSE,FALSE,2026-08-26T16:00:00Z,-105.955574,35.671474,1
2608261700,35.671505,-105.955528,0,2375,25,0.02,16.7,28.4,1,NA,43.1,8,1,282,14.1,0,Smoke USFS R3-28,EBAM,FALSE,NA,FALSE,FALSE,FALSE,FALSE,FALSE,FALSE,FALSE,FALSE,FALSE,2026-08-26T17:00:00Z,-105.955574,35.671474,1
2608261800,35.671505,-105.955528,0,2375,0,0.039,16.7,28.5,1,NA,44.5,7,1.1,251,14.1,0,Smoke USFS R3-28,EBAM,FALSE,NA,FALSE,FALSE,FALSE,FALSE,FALSE,FALSE,FALSE,FALSE,FALSE,2026-08-26T18:00:00Z,-105.955574,35.671474,1
2608261900,35.671505,-105.955528,0,2375,11,0.007,16.7,29.3,1,NA,45.5,6,2.5,269,14.1,0,Smoke USFS R3-28,EBAM,FALSE,NA,FALSE,FALSE,FALSE,FALSE,FALSE,FALSE,FALSE,FALSE,FALSE,2026-08-26T19:00:00Z,-105.955574,35.671474,1
2608262000,35.671505,-105.955528,0,2375,-4.999,0,16.7,29,1,NA,45.4,5,2,285,14.1,0,Smoke USFS R3-28,EBAM,FALSE,NA,FALSE,FALSE,FALSE,FALSE,FALSE,FALSE,FALSE,FALSE,FALSE,2026-08-26T20:00:00Z,-105.955574,35.671474,1
2608262100,35.671505,-105.955528,0,2375,-4.999,-0.004999,16.7,26.6,1,NA,35.2,6,3.4,250,14.1,0,Smoke USFS R3-28,EBAM,FALSE,NA,FALSE,FALSE,FALSE,FALSE,FALSE,FALSE,FALSE,FALSE,FALSE,2026-08-26T21:00:00Z,-105.955574,35.671474,1
2608262200,35.671417,-105.955635,0,2375,7,-0.004999,16.7,27.7,1,NA,37.7,5,2.2,284,14.1,0,Smoke USFS R3-28,EBAM,FALSE,NA,FALSE,FALSE,FALSE,FALSE,FALSE,FALSE,FALSE,FALSE,FALSE,2026-08-26T22:00:00Z,-105.955574,35.671474,1
2608262300,35.671417,-105.955635,0,2375,4,0.008,16.7,26.3,1,NA,35.6,9,1.1,47,14.1,0,Smoke USFS R3-28,EBAM,FALSE,NA,FALSE,FALSE,FALSE,FALSE,FALSE,FALSE,FALSE,FALSE,FALSE,2026-08-26T23:00:00Z,-105.955574,35.671474,1
2608270000,35.671417,-105.955635,0,2375,-4.999,-0.004999,16.7,26.8,1,NA,35.9,8,1.3,326,14.1,0,Smoke USFS R3-28,EBAM,FALSE,NA,FALSE,FALSE,FALSE,FALSE,FALSE,FALSE,FALSE,FALSE,FALSE,2026-08-27T00:00:00Z,-105.955574,35.671474,1
2608270100,35.671417,-105.955635,0,2375,-4.999,-9.99e-4,16.7,25.4,0,NA,34.4,10,1.6,144,14.1,0,Smoke USFS R3-28,EBAM,FALSE,NA,FALSE,FALSE,FALSE,FALSE,FALSE,FALSE,FALSE,FALSE,FALSE,2026-08-27T01:00:00Z,-105.955574,35.671474,1
2608270200,35.671417,-105.955635,0,2375,-4.999,-0.004999,16.7,24.3,0,NA,32,12,2.3,65,14.2,0,Smoke USFS R3-28,EBAM,FALSE,NA,FALSE,FALSE,FALSE,FALSE,FALSE,FALSE,FALSE,FALSE,FALSE,2026-08-27T02:00:00Z,-105.955574,35.671474,1
2608270300,35.671417,-105.955635,0,2375,-4.999,-0.004999,16.7,17.8,0,NA,24.7,29,1,57,14.2,0,Smoke USFS R3-28,EBAM,FALSE,NA,FALSE,FALSE,FALSE,FALSE,FALSE,FALSE,FALSE,FALSE,FALSE,2026-08-27T03:00:00Z,-105.955574,35.671474,1
2608270400,35.671417,-105.955635,0,2375,-4.999,-0.004999,16.7,20.9,0,NA,25.9,20,2,85,14.2,0,Smoke USFS R3-28,EBAM,FALSE,NA,FALSE,FALSE,FALSE,FALSE,FALSE,FALSE,FALSE,FALSE,FALSE,2026-08-27T04:00:00Z,-105.955574,35.671474,1
2608270500,35.671417,-105.955635,0,2375,-4.999,-0.004999,16.7,19.2,0,NA,26.3,22,0.8,309,14.2,0,Smoke USFS R3-28,EBAM,FALSE,NA,FALSE,FALSE,FALSE,FALSE,FALSE,FALSE,FALSE,FALSE,FALSE,2026-08-27T05:00:00Z,-105.955574,35.671474,1
2608270600,35.671417,-105.955635,0,2375,-4.999,-0.004999,16.7,17.6,0,NA,24.9,22,1.1,51,14.2,0,Smoke USFS R3-28,EBAM,FALSE,NA,FALSE,FALSE,FALSE,FALSE,FALSE,FALSE,FALSE,FALSE,FALSE,2026-08-27T06:00:00Z,-105.955574,35.671474,1
2608270700,35.671417,-105.955635,0,2375,21,-0.004999,16.7,16.6,0,NA,23.5,25,0.8,41,14.2,0,Smoke USFS R3-28,EBAM,FALSE,NA,FALSE,FALSE,FALSE,FALSE,FALSE,FALSE,FALSE,FALSE,FALSE,2026-08-27T07:00:00Z,-105.955574,35.671474,1
2608270800,35.671417,-105.955635,0,2375,-4.999,0.057,16.7,17.2,0,NA,23,23,2,68,14.2,0,Smoke USFS R3-28,EBAM,FALSE,NA,FALSE,FALSE,FALSE,FALSE,FALSE,FALSE,FALSE,FALSE,FALSE,2026-08-27T08:00:00Z,-105.955574,35.671474,1
2608270900,35.671417,-105.955635,0,2375,-4.999,0,16.7,16.1,0,NA,22.4,24,1.8,60,14.2,0,Smoke USFS R3-28,EBAM,FALSE,NA,FALSE,FALSE,FALSE,FALSE,FALSE,FALSE,FALSE,FALSE,FALSE,2026-08-27T09:00:00Z,-105.955574,35.671474,1
2608271000,35.671417,-105.955635,0,2375,-4.999,-0.004999,16.7,15.6,0,NA,21.8,24,1.8,69,14.2,0,Smoke USFS R3-28,EBAM,FALSE,NA,FALSE,FALSE,FALSE,FALSE,FALSE,FALSE,FALSE,FALSE,FALSE,2026-08-27T10:00:00Z,-105.955574,35.671474,1
2608271100,35.671417,-105.955635,0,2375,-4.999,-0.004999,16.7,15.6,0,NA,21.6,24,1.7,62,14.2,0,Smoke USFS R3-28,EBAM,FALSE,NA,FALSE,FALSE,FALSE,FALSE,FALSE,FALSE,FALSE,FALSE,FALSE,2026-08-27T11:00:00Z,-105.955574,35.671474,1
2608271200,35.671417,-105.955635,0,2375,-4.999,-0.002999,16.7,14.8,0,NA,21,25,1.5,67,14.2,0,Smoke USFS R3-28,EBAM,FALSE,NA,FALSE,FALSE,FALSE,FALSE,FALSE,FALSE,FALSE,FALSE,FALSE,2026-08-27T12:00:00Z,-105.955574,35.671474,1
2608271300,35.671417,-105.955635,0,2375,-4.999,-0.004999,16.7,14.5,0,NA,20.7,26,1.1,66,14.2,0,Smoke USFS R3-28,EBAM,FALSE,NA,FALSE,FALSE,FALSE,FALSE,FALSE,FALSE,FALSE,FALSE,FALSE,2026-08-27T13:00:00Z,-105.955574,35.671474,1
2608271400,35.671417,-105.955635,0,2375,18,-0.004999,16.7,18.6,0,NA,25.1,20,0.9,69,14.2,0,Smoke USFS R3-28,EBAM,FALSE,NA,FALSE,FALSE,FALSE,FALSE,FALSE,FALSE,FALSE,FALSE,FALSE,2026-08-27T14:00:00Z,-105.955574,35.671474,1
2608271500,35.671417,-105.955635,0,2375,52,0.021,16.7,22.3,1,NA,33.7,12,1,269,14.2,0,Smoke USFS R3-28,EBAM,FALSE,NA,FALSE,FALSE,FALSE,FALSE,FALSE,FALSE,FALSE,FALSE,FALSE,2026-08-27T15:00:00Z,-105.955574,35.671474,1
2608271600,35.671417,-105.955635,0,2375,80,0.042,16.7,24.5,1,NA,39.8,9,1.6,255,14.2,0,Smoke USFS R3-28,EBAM,FALSE,NA,FALSE,FALSE,FALSE,FALSE,FALSE,FALSE,FALSE,FALSE,FALSE,2026-08-27T16:00:00Z,-105.955574,35.671474,1
2608271700,35.671417,-105.955635,0,2375,-4.999,0.028,16.7,24.4,1,NA,38.7,10,2,266,14.2,0,Smoke USFS R3-28,EBAM,FALSE,NA,FALSE,FALSE,FALSE,FALSE,FALSE,FALSE,FALSE,FALSE,FALSE,2026-08-27T17:00:00Z,-105.955574,35.671474,1
2608271800,35.671417,-105.955635,0,2375,16,-0.004999,16.7,27.7,1,NA,41.7,8,1.4,260,14.2,0,Smoke USFS R3-28,EBAM,FALSE,NA,FALSE,FALSE,FALSE,FALSE,FALSE,FALSE,FALSE,FALSE,FALSE,2026-08-27T18:00:00Z,-105.955574,35.671474,1
2608271900,35.671417,-105.955635,0,2375,64,0.026,16.7,29.3,1,NA,46,5,2.3,255,14.1,0,Smoke USFS R3-28,EBAM,FALSE,NA,FALSE,FALSE,FALSE,FALSE,FALSE,FALSE,FALSE,FALSE,FALSE,2026-08-27T19:00:00Z,-105.955574,35.671474,1
2608272000,35.671417,-105.955635,0,2375,-4.999,0.026,16.7,28,1,NA,44,6,2.4,272,14.1,0,Smoke USFS R3-28,EBAM,FALSE,NA,FALSE,FALSE,FALSE,FALSE,FALSE,FALSE,FALSE,FALSE,FALSE,2026-08-27T20:00:00Z,-105.955574,35.671474,1
2608272100,35.671417,-105.955635,0,2375,-4.999,-0.004999,16.7,27.2,1,NA,38.5,8,2.1,285,14.2,0,Smoke USFS R3-28,EBAM,FALSE,NA,FALSE,FALSE,FALSE,FALSE,FALSE,FALSE,FALSE,FALSE,FALSE,2026-08-27T21:00:00Z,-105.955574,35.671474,1
2608272200,35.671459,-105.955612,0,2375,70,-0.004999,16.7,29.5,1,NA,42.2,6,1.3,287,14.2,0,Smoke USFS R3-28,EBAM,FALSE,NA,FALSE,FALSE,FALSE,FALSE,FALSE,FALSE,FALSE,FALSE,FALSE,2026-08-27T22:00:00Z,-105.955574,35.671474,1
2608272300,35.671459,-105.955612,0,2375,-4.999,0.016,16.7,28.2,1,NA,41.3,6,1.1,4,14.2,0,Smoke USFS R3-28,EBAM,FALSE,NA,FALSE,FALSE,FALSE,FALSE,FALSE,FALSE,FALSE,FALSE,FALSE,2026-08-27T23:00:00Z,-105.955574,35.671474,1
2608280000,35.671459,-105.955612,0,2375,-4.999,-0.004999,16.7,26.8,1,NA,36.8,8,3.3,115,14.2,0,Smoke USFS R3-28,EBAM,FALSE,NA,FALSE,FALSE,FALSE,FALSE,FALSE,FALSE,FALSE,FALSE,FALSE,2026-08-28T00:00:00Z,-105.955574,35.671474,1
2608280100,35.671459,-105.955612,0,2375,-4.999,-0.004999,16.7,24.7,0,NA,32.5,11,2.5,104,14.2,0,Smoke USFS R3-28,EBAM,FALSE,NA,FALSE,FALSE,FALSE,FALSE,FALSE,FALSE,FALSE,FALSE,FALSE,2026-08-28T01:00:00Z,-105.955574,35.671474,1
2608280200,35.671459,-105.955612,0,2375,-4.999,-0.004999,16.7,24,0,NA,31.3,12,2.4,103,14.2,0,Smoke USFS R3-28,EBAM,FALSE,NA,FALSE,FALSE,FALSE,FALSE,FALSE,FALSE,FALSE,FALSE,FALSE,2026-08-28T02:00:00Z,-105.955574,35.671474,1
2608280300,35.671459,-105.955612,0,2375,-4.999,-0.004999,16.7,23.2,0,NA,30.7,13,1.2,156,14.2,0,Smoke USFS R3-28,EBAM,FALSE,NA,FALSE,FALSE,FALSE,FALSE,FALSE,FALSE,FALSE,FALSE,FALSE,2026-08-28T03:00:00Z,-105.955574,35.671474,1
2608280400,35.671459,-105.955612,0,2375,-4.999,-0.004999,16.7,22.3,0,NA,29.8,15,2.2,122,14.2,0,Smoke USFS R3-28,EBAM,FALSE,NA,FALSE,FALSE,FALSE,FALSE,FALSE,FALSE,FALSE,FALSE,FALSE,2026-08-28T04:00:00Z,-105.955574,35.671474,1
2608280500,35.671459,-105.955612,0,2375,-4.999,-0.004999,16.7,21.7,0,NA,28.9,16,1.8,116,14.2,0,Smoke USFS R3-28,EBAM,FALSE,NA,FALSE,FALSE,FALSE,FALSE,FALSE,FALSE,FALSE,FALSE,FALSE,2026-08-28T05:00:00Z,-105.955574,35.671474,1
2608280600,35.671459,-105.955612,0,2375,-4.999,-0.004999,16.7,20.4,0,NA,27.2,18,0.8,144,14.2,0,Smoke USFS R3-28,EBAM,FALSE,NA,FALSE,FALSE,FALSE,FALSE,FALSE,FALSE,FALSE,FALSE,FALSE,2026-08-28T06:00:00Z,-105.955574,35.671474,1
2608280700,35.671459,-105.955612,0,2375,24,-0.004999,16.7,19,0,NA,25.8,19,0.3,17,14.2,0,Smoke USFS R3-28,EBAM,FALSE,NA,FALSE,FALSE,FALSE,FALSE,FALSE,FALSE,FALSE,FALSE,FALSE,2026-08-28T07:00:00Z,-105.955574,35.671474,1
2608280800,35.671459,-105.955612,0,2375,0,0.051,16.7,19.1,0,NA,24.8,21,1,112,14.2,0,Smoke USFS R3-28,EBAM,FALSE,NA,FALSE,FALSE,FALSE,FALSE,FALSE,FALSE,FALSE,FALSE,FALSE,2026-08-28T08:00:00Z,-105.955574,35.671474,1
2608280900,35.671459,-105.955612,0,2375,5,-0.004999,16.7,19.9,0,NA,25.2,21,2,93,14.2,0,Smoke USFS R3-28,EBAM,FALSE,NA,FALSE,FALSE,FALSE,FALSE,FALSE,FALSE,FALSE,FALSE,FALSE,2026-08-28T09:00:00Z,-105.955574,35.671474,1
2608281000,35.671459,-105.955612,0,2375,-1.999,-0.002999,16.7,19.2,0,NA,25.1,22,1,84,14.2,0,Smoke USFS R3-28,EBAM,FALSE,NA,FALSE,FALSE,FALSE,FALSE,FALSE,FALSE,FALSE,FALSE,FALSE,2026-08-28T10:00:00Z,-105.955574,35.671474,1
2608281100,35.671459,-105.955612,0,2375,-4.999,-0.004999,16.7,17.6,0,NA,24,23,1.3,75,14.2,0,Smoke USFS R3-28,EBAM,FALSE,NA,FALSE,FALSE,FALSE,FALSE,FALSE,FALSE,FALSE,FALSE,FALSE,2026-08-28T11:00:00Z,-105.955574,35.671474,1
2608281200,35.671459,-105.955612,0,2375,-4.999,-0.004999,16.7,16,0,NA,22.7,25,1.2,70,14.2,0,Smoke USFS R3-28,EBAM,FALSE,NA,FALSE,FALSE,FALSE,FALSE,FALSE,FALSE,FALSE,FALSE,FALSE,2026-08-28T12:00:00Z,-105.955574,35.671474,1
2608281300,35.671459,-105.955612,0,2375,-4.999,-0.004999,16.7,16.3,0,NA,22.3,24,1.5,65,14.2,0,Smoke USFS R3-28,EBAM,FALSE,NA,FALSE,FALSE,FALSE,FALSE,FALSE,FALSE,FALSE,FALSE,FALSE,2026-08-28T13:00:00Z,-105.955574,35.671474,1
2608281400,35.671459,-105.955612,0,2375,30,-0.004999,16.7,19.4,0,NA,26.4,19,1.3,74,14.2,0,Smoke USFS R3-28,EBAM,FALSE,NA,FALSE,FALSE,FALSE,FALSE,FALSE,FALSE,FALSE,FALSE,FALSE,2026-08-28T14:00:00Z,-105.955574,35.671474,1
2608281500,35.671459,-105.955612,0,2375,28,0.015,16.7,25.6,0,NA,34.9,12,0.6,327,14.2,0,Smoke USFS R3-28,EBAM,FALSE,NA,FALSE,FALSE,FALSE,FALSE,FALSE,FALSE,FALSE,FALSE,FALSE,2026-08-28T15:00:00Z,-105.955574,35.671474,1
2608281600,35.671459,-105.955612,0,2375,16,0.039,16.7,26,1,NA,40.5,8,0.9,258,14.2,0,Smoke USFS R3-28,EBAM,FALSE,NA,FALSE,FALSE,FALSE,FALSE,FALSE,FALSE,FALSE,FALSE,FALSE,2026-08-28T16:00:00Z,-105.955574,35.671474,1
2608281700,35.671459,-105.955612,0,2375,18,0.023,16.7,27,1,NA,43.1,7,1.4,271,14.2,0,Smoke USFS R3-28,EBAM,FALSE,NA,FALSE,FALSE,FALSE,FALSE,FALSE,FALSE,FALSE,FALSE,FALSE,2026-08-28T17:00:00Z,-105.955574,35.671474,1
2608281800,35.671459,-105.955612,0,2375,12,0.015,16.7,28.7,1,NA,43.6,7,1.4,216,14.2,0,Smoke USFS R3-28,EBAM,FALSE,NA,FALSE,FALSE,FALSE,FALSE,FALSE,FALSE,FALSE,FALSE,FALSE,2026-08-28T18:00:00Z,-105.955574,35.671474,1
2608281900,35.671459,-105.955612,0,2375,-4.999,-0.003999,16.7,29.8,1,NA,45.3,6,2.3,266,14.2,0,Smoke USFS R3-28,EBAM,FALSE,NA,FALSE,FALSE,FALSE,FALSE,FALSE,FALSE,FALSE,FALSE,FALSE,2026-08-28T19:00:00Z,-105.955574,35.671474,1
2608282000,35.671459,-105.955612,0,2375,18,0.008,16.7,30.2,1,NA,44.5,6,2.3,257,14.2,0,Smoke USFS R3-28,EBAM,FALSE,NA,FALSE,FALSE,FALSE,FALSE,FALSE,FALSE,FALSE,FALSE,FALSE,2026-08-28T20:00:00Z,-105.955574,35.671474,1
2608282100,35.671459,-105.955612,0,2375,-4.999,-0.004999,16.7,29.1,1,NA,41.9,6,2.9,267,14.2,0,Smoke USFS R3-28,EBAM,FALSE,NA,FALSE,FALSE,FALSE,FALSE,FALSE,FALSE,FALSE,FALSE,FALSE,2026-08-28T21:00:00Z,-105.955574,35.671474,1
2608282200,35.671547,-105.955597,0,2375,-4.999,-0.004999,16.7,26.9,1,NA,37,8,2.4,284,14.2,0,Smoke USFS R3-28,EBAM,FALSE,NA,FALSE,FALSE,FALSE,FALSE,FALSE,FALSE,FALSE,FALSE,FALSE,2026-08-28T22:00:00Z,-105.955574,35.671474,1
2608282300,35.671547,-105.955597,0,2375,65,-0.004999,16.7,30.1,1,NA,41.3,6,2.1,277,14.2,0,Smoke USFS R3-28,EBAM,FALSE,NA,FALSE,FALSE,FALSE,FALSE,FALSE,FALSE,FALSE,FALSE,FALSE,2026-08-28T23:00:00Z,-105.955574,35.671474,1
2608290000,35.671547,-105.955597,0,2375,19,0.028,16.7,31.3,1,NA,42.1,4,1.1,30,14.2,0,Smoke USFS R3-28,EBAM,FALSE,NA,FALSE,FALSE,FALSE,FALSE,FALSE,FALSE,FALSE,FALSE,FALSE,2026-08-29T00:00:00Z,-105.955574,35.671474,1
2608290100,35.671547,-105.955597,0,2375,-4.999,-0.004999,16.7,27.3,1,NA,38.5,7,1.1,45,14.2,0,Smoke USFS R3-28,EBAM,FALSE,NA,FALSE,FALSE,FALSE,FALSE,FALSE,FALSE,FALSE,FALSE,FALSE,2026-08-29T01:00:00Z,-105.955574,35.671474,1
2608290200,35.671547,-105.955597,0,2375,-4.999,-0.004999,16.7,24.9,1,NA,33.8,11,1.1,77,14.2,0,Smoke USFS R3-28,EBAM,FALSE,NA,FALSE,FALSE,FALSE,FALSE,FALSE,FALSE,FALSE,FALSE,FALSE,2026-08-29T02:00:00Z,-105.955574,35.671474,1
2608290300,35.671547,-105.955597,0,2375,-4.999,-0.004999,16.7,23.2,0,NA,30.8,12,1.7,72,14.2,0,Smoke USFS R3-28,EBAM,FALSE,NA,FALSE,FALSE,FALSE,FALSE,FALSE,FALSE,FALSE,FALSE,FALSE,2026-08-29T03:00:00Z,-105.955574,35.671474,1
2608290400,35.671547,-105.955597,0,2375,-4.999,-0.004999,16.7,22.4,0,NA,29.3,13,1.9,68,14.2,0,Smoke USFS R3-28,EBAM,FALSE,NA,FALSE,FALSE,FALSE,FALSE,FALSE,FALSE,FALSE,FALSE,FALSE,2026-08-29T04:00:00Z,-105.955574,35.671474,1
2608290500,35.671547,-105.955597,0,2375,0,-0.004999,16.7,22.8,0,NA,29.3,13,1.2,206,14.2,0,Smoke USFS R3-28,EBAM,FALSE,NA,FALSE,FALSE,FALSE,FALSE,FALSE,FALSE,FALSE,FALSE,FALSE,2026-08-29T05:00:00Z,-105.955574,35.671474,1
2608290600,35.671547,-105.955597,0,2375,-4.999,-0.004999,16.7,20.3,0,NA,27.9,15,0.9,64,14.2,0,Smoke USFS R3-28,EBAM,FALSE,NA,FALSE,FALSE,FALSE,FALSE,FALSE,FALSE,FALSE,FALSE,FALSE,2026-08-29T06:00:00Z,-105.955574,35.671474,1
2608290700,35.671547,-105.955597,0,2375,13,-0.004999,16.7,19.3,0,NA,26.1,18,0.9,62,14.2,0,Smoke USFS R3-28,EBAM,FALSE,NA,FALSE,FALSE,FALSE,FALSE,FALSE,FALSE,FALSE,FALSE,FALSE,2026-08-29T07:00:00Z,-105.955574,35.671474,1
2608290800,35.671547,-105.955597,0,2375,1,0.021,16.7,19.2,0,NA,25.3,19,1.4,76,14.2,0,Smoke USFS R3-28,EBAM,FALSE,NA,FALSE,FALSE,FALSE,FALSE,FALSE,FALSE,FALSE,FALSE,FALSE,2026-08-29T08:00:00Z,-105.955574,35.671474,1
2608290900,35.671547,-105.955597,0,2375,-4.999,-0.004999,16.7,18.1,0,NA,24.6,21,1,66,14.2,0,Smoke USFS R3-28,EBAM,FALSE,NA,FALSE,FALSE,FALSE,FALSE,FALSE,FALSE,FALSE,FALSE,FALSE,2026-08-29T09:00:00Z,-105.955574,35.671474,1
2608291000,35.671547,-105.955597,0,2375,-4.999,-0.004999,16.7,18.1,0,NA,24,22,1,86,14.2,0,Smoke USFS R3-28,EBAM,FALSE,NA,FALSE,FALSE,FALSE,FALSE,FALSE,FALSE,FALSE,FALSE,FALSE,2026-08-29T10:00:00Z,-105.955574,35.671474,1
2608291100,35.671547,-105.955597,0,2375,-4.999,-0.004999,16.7,16.8,0,NA,23.4,23,1.2,65,14.2,0,Smoke USFS R3-28,EBAM,FALSE,NA,FALSE,FALSE,FALSE,FALSE,FALSE,FALSE,FALSE,FALSE,FALSE,2026-08-29T11:00:00Z,-105.955574,35.671474,1
2608291200,35.671547,-105.955597,0,2375,-4.999,-0.004999,16.7,16.6,0,NA,22.9,24,1.2,66,14.2,0,Smoke USFS R3-28,EBAM,FALSE,NA,FALSE,FALSE,FALSE,FALSE,FALSE,FALSE,FALSE,FALSE,FALSE,2026-08-29T12:00:00Z,-105.955574,35.671474,1
2608291300,35.671547,-105.955597,0,2375,11,-0.004999,16.7,16.2,0,NA,22.5,25,1.1,73,14.2,0,Smoke USFS R3-28,EBAM,FALSE,NA,FALSE,FALSE,FALSE,FALSE,FALSE,FALSE,FALSE,FALSE,FALSE,2026-08-29T13:00:00Z,-105.955574,35.671474,1
2608291400,35.671547,-105.955597,0,2375,40,-0.004999,16.7,19.7,0,NA,26.4,20,1,60,14.2,0,Smoke USFS R3-28,EBAM,FALSE,NA,FALSE,FALSE,FALSE,FALSE,FALSE,FALSE,FALSE,FALSE,FALSE,2026-08-29T14:00:00Z,-105.955574,35.671474,1
2608291500,35.671547,-105.955597,0,2375,53,0.019,16.7,23.3,1,NA,33.7,13,0.9,228,14.2,0,Smoke USFS R3-28,EBAM,FALSE,NA,FALSE,FALSE,FALSE,FALSE,FALSE,FALSE,FALSE,FALSE,FALSE,2026-08-29T15:00:00Z,-105.955574,35.671474,1
2608291600,35.671547,-105.955597,0,2375,29,0.031,16.7,24.1,1,NA,38.7,9,1.8,264,14.2,0,Smoke USFS R3-28,EBAM,FALSE,NA,FALSE,FALSE,FALSE,FALSE,FALSE,FALSE,FALSE,FALSE,FALSE,2026-08-29T16:00:00Z,-105.955574,35.671474,1
2608291700,35.671547,-105.955597,0,2375,15,0.017,16.7,27.1,1,NA,41.7,7,1.8,258,14.2,0,Smoke USFS R3-28,EBAM,FALSE,NA,FALSE,FALSE,FALSE,FALSE,FALSE,FALSE,FALSE,FALSE,FALSE,2026-08-29T17:00:00Z,-105.955574,35.671474,1
2608291800,35.671547,-105.955597,0,2375,11,0.02,16.7,30.1,1,NA,45.1,6,1.3,285,14.2,0,Smoke USFS R3-28,EBAM,FALSE,NA,FALSE,FALSE,FALSE,FALSE,FALSE,FALSE,FALSE,FALSE,FALSE,2026-08-29T18:00:00Z,-105.955574,35.671474,1
2608291900,35.671547,-105.955597,0,2375,-1.999,0.023,16.7,29.6,1,NA,45.9,5,2.9,276,14.2,0,Smoke USFS R3-28,EBAM,FALSE,NA,FALSE,FALSE,FALSE,FALSE,FALSE,FALSE,FALSE,FALSE,FALSE,2026-08-29T19:00:00Z,-105.955574,35.671474,1
2608292000,35.671547,-105.955597,0,2375,-4.999,-0.004999,16.7,29.3,1,NA,42.8,6,3.3,264,14.2,0,Smoke USFS R3-28,EBAM,FALSE,NA,FALSE,FALSE,FALSE,FALSE,FALSE,FALSE,FALSE,FALSE,FALSE,2026-08-29T20:00:00Z,-105.955574,35.671474,1
2608292100,35.671547,-105.955597,0,2375,-4.999,-0.004999,16.7,30.6,1,NA,43.3,6,2.1,245,14.2,0,Smoke USFS R3-28,EBAM,FALSE,NA,FALSE,FALSE,FALSE,FALSE,FALSE,FALSE,FALSE,FALSE,FALSE,2026-08-29T21:00:00Z,-105.955574,35.671474,1
2608292200,35.671474,-105.955574,0,2375,-1.999,-0.004999,16.7,30.3,1,NA,43.5,6,3.5,253,14.2,0,Smoke USFS R3-28,EBAM,FALSE,NA,FALSE,FALSE,FALSE,FALSE,FALSE,FALSE,FALSE,FALSE,FALSE,2026-08-29T22:00:00Z,-105.955574,35.671474,1
2608292300,35.671474,-105.955574,0,2375,-4.999,-0.004999,16.7,30.4,1,NA,43,6,3.1,238,14.2,0,Smoke USFS R3-28,EBAM,FALSE,NA,FALSE,FALSE,FALSE,FALSE,FALSE,FALSE,FALSE,FALSE,FALSE,2026-08-29T23:00:00Z,-105.955574,35.671474,1
2608300000,35.671474,-105.955574,0,2375,-4.999,-0.004999,16.7,27.6,1,NA,39.7,9,2,38,14.2,0,Smoke USFS R3-28,EBAM,FALSE,NA,FALSE,FALSE,FALSE,FALSE,FALSE,FALSE,FALSE,FALSE,FALSE,2026-08-30T00:00:00Z,-105.955574,35.671474,1
2608300100,35.671474,-105.955574,0,2375,-4.999,-0.004999,16.7,25.9,1,NA,35.2,12,1.3,41,14.2,0,Smoke USFS R3-28,EBAM,FALSE,NA,FALSE,FALSE,FALSE,FALSE,FALSE,FALSE,FALSE,FALSE,FALSE,2026-08-30T01:00:00Z,-105.955574,35.671474,1
2608300200,35.671474,-105.955574,0,2375,-4.999,-0.004999,16.7,24.3,0,NA,32.5,14,0.9,42,14.2,0,Smoke USFS R3-28,EBAM,FALSE,NA,FALSE,FALSE,FALSE,FALSE,FALSE,FALSE,FALSE,FALSE,FALSE,2026-08-30T02:00:00Z,-105.955574,35.671474,1
2608300300,35.671474,-105.955574,0,2375,-4.999,-0.004999,16.7,23.5,1,NA,31.1,17,4.7,270,14.2,0,Smoke USFS R3-28,EBAM,FALSE,NA,FALSE,FALSE,FALSE,FALSE,FALSE,FALSE,FALSE,FALSE,FALSE,2026-08-30T03:00:00Z,-105.955574,35.671474,1
2608300400,35.671474,-105.955574,0,2375,-4.999,-0.004999,16.7,19.4,0,NA,27,25,1.6,28,14.1,0,Smoke USFS R3-28,EBAM,FALSE,NA,FALSE,FALSE,FALSE,FALSE,FALSE,FALSE,FALSE,FALSE,FALSE,2026-08-30T04:00:00Z,-105.955574,35.671474,1
2608300500,35.671474,-105.955574,0,2375,-4.999,-0.004999,16.7,19.3,0,NA,26.4,24,1.7,44,14.2,0,Smoke USFS R3-28,EBAM,FALSE,NA,FALSE,FALSE,FALSE,FALSE,FALSE,FALSE,FALSE,FALSE,FALSE,2026-08-30T05:00:00Z,-105.955574,35.671474,1
2608300600,35.671474,-105.955574,0,2375,-4.999,-0.004999,16.7,18.6,0,NA,25.5,26,2,35,14.2,0,Smoke USFS R3-28,EBAM,FALSE,NA,FALSE,FALSE,FALSE,FALSE,FALSE,FALSE,FALSE,FALSE,FALSE,2026-08-30T06:00:00Z,-105.955574,35.671474,1
2608300700,35.671474,-105.955574,0,2375,17,-0.004999,16.7,17.7,0,NA,24.7,28,1.3,45,14.2,0,Smoke USFS R3-28,EBAM,FALSE,NA,FALSE,FALSE,FALSE,FALSE,FALSE,FALSE,FALSE,FALSE,FALSE,2026-08-30T07:00:00Z,-105.955574,35.671474,1
2608300800,35.671474,-105.955574,0,2375,0,0.063,16.7,16.1,0,NA,23.1,33,1.2,36,14.2,0,Smoke USFS R3-28,EBAM,FALSE,NA,FALSE,FALSE,FALSE,FALSE,FALSE,FALSE,FALSE,FALSE,FALSE,2026-08-30T08:00:00Z,-105.955574,35.671474,1
2608300900,35.671474,-105.955574,0,2375,9,-0.004999,16.7,15.3,0,NA,22.3,35,1.1,48,14.2,0,Smoke USFS R3-28,EBAM,FALSE,NA,FALSE,FALSE,FALSE,FALSE,FALSE,FALSE,FALSE,FALSE,FALSE,2026-08-30T09:00:00Z,-105.955574,35.671474,1
2608301000,35.671474,-105.955574,0,2375,-4.999,-0.004999,16.7,17.1,0,NA,22.8,31,1.3,57,14.2,0,Smoke USFS R3-28,EBAM,FALSE,NA,FALSE,FALSE,FALSE,FALSE,FALSE,FALSE,FALSE,FALSE,FALSE,2026-08-30T10:00:00Z,-105.955574,35.671474,1
2608301100,35.671474,-105.955574,0,2375,8,-0.003999,16.7,18.2,0,NA,24.6,25,0.4,341,14.2,0,Smoke USFS R3-28,EBAM,FALSE,NA,FALSE,FALSE,FALSE,FALSE,FALSE,FALSE,FALSE,FALSE,FALSE,2026-08-30T11:00:00Z,-105.955574,35.671474,1
2608301200,35.671474,-105.955574,0,2375,-4.999,0.004,16.7,17.8,0,NA,25.1,24,1,47,14.2,0,Smoke USFS R3-28,EBAM,FALSE,NA,FALSE,FALSE,FALSE,FALSE,FALSE,FALSE,FALSE,FALSE,FALSE,2026-08-30T12:00:00Z,-105.955574,35.671474,1
2608301300,35.671474,-105.955574,0,2375,26,-0.002999,16.7,18.8,0,NA,25.2,23,0.8,266,14.2,0,Smoke USFS R3-28,EBAM,FALSE,NA,FALSE,FALSE,FALSE,FALSE,FALSE,FALSE,FALSE,FALSE,FALSE,2026-08-30T13:00:00Z,-105.955574,35.671474,1
2608301400,35.671474,-105.955574,0,2375,32,-0.004999,16.7,21.1,0,NA,29.6,18,0.3,335,14.2,0,Smoke USFS R3-28,EBAM,FALSE,NA,FALSE,FALSE,FALSE,FALSE,FALSE,FALSE,FALSE,FALSE,FALSE,2026-08-30T14:00:00Z,-105.955574,35.671474,1
2608301500,35.671474,-105.955574,0,2375,-4.999,0.022,16.7,21.3,1,NA,32.3,17,1.7,275,14.2,0,Smoke USFS R3-28,EBAM,FALSE,NA,FALSE,FALSE,FALSE,FALSE,FALSE,FALSE,FALSE,FALSE,FALSE,2026-08-30T15:00:00Z,-105.955574,35.671474,1
2608301600,35.671474,-105.955574,0,2375,20,0,16.7,23,1,NA,37,13,2.7,272,14.2,0,Smoke USFS R3-28,EBAM,FALSE,NA,FALSE,FALSE,FALSE,FALSE,FALSE,FALSE,FALSE,FALSE,FALSE,2026-08-30T16:00:00Z,-105.955574,35.671474,1
2608301700,35.671474,-105.955574,0,2375,23,0.018,16.7,25,1,NA,37.8,11,1.6,274,14.2,0,Smoke USFS R3-28,EBAM,FALSE,NA,FALSE,FALSE,FALSE,FALSE,FALSE,FALSE,FALSE,FALSE,FALSE,2026-08-30T17:00:00Z,-105.955574,35.671474,1
2608301800,35.671474,-105.955574,0,2375,-4.999,0,16.7,26.8,1,NA,41.8,8,1.6,329,14.2,0,Smoke USFS R3-28,EBAM,FALSE,NA,FALSE,FALSE,FALSE,FALSE,FALSE,FALSE,FALSE,FALSE,FALSE,2026-08-30T18:00:00Z,-105.955574,35.671474,1
2608301900,35.671474,-105.955574,0,2375,-4.999,0.013,16.7,27.5,1,NA,42.1,8,2.6,275,14.2,0,Smoke USFS R3-28,EBAM,FALSE,NA,FALSE,FALSE,FALSE,FALSE,FALSE,FALSE,FALSE,FALSE,FALSE,2026-08-30T19:00:00Z,-105.955574,35.671474,1
2608302000,35.671474,-105.955574,0,2375,-4.999,-0.004999,16.7,29.4,1,NA,44.2,7,1.8,279,14.2,0,Smoke USFS R3-28,EBAM,FALSE,NA,FALSE,FALSE,FALSE,FALSE,FALSE,FALSE,FALSE,FALSE,FALSE,2026-08-30T20:00:00Z,-105.955574,35.671474,1
2608302100,35.671474,-105.955574,0,2375,-4.999,0.003,16.7,29.7,1,NA,43.4,7,1,219,14.2,0,Smoke USFS R3-28,EBAM,FALSE,NA,FALSE,FALSE,FALSE,FALSE,FALSE,FALSE,FALSE,FALSE,FALSE,2026-08-30T21:00:00Z,-105.955574,35.671474,1
2608302200,35.67157,-105.955635,0,2375,-4.999,-0.004999,16.7,27.7,1,NA,40.2,9,1.1,274,14.2,0,Smoke USFS R3-28,EBAM,FALSE,NA,FALSE,FALSE,FALSE,FALSE,FALSE,FALSE,FALSE,FALSE,FALSE,2026-08-30T22:00:00Z,-105.955574,35.671474,1
2608302300,35.67157,-105.955635,0,2375,61,-0.004999,16.7,29.8,1,NA,42.5,7,1.6,288,14.2,0,Smoke USFS R3-28,EBAM,FALSE,NA,FALSE,FALSE,FALSE,FALSE,FALSE,FALSE,FALSE,FALSE,FALSE,2026-08-30T23:00:00Z,-105.955574,35.671474,1
2608310000,35.67157,-105.955635,0,2375,-4.999,0.009,16.7,27.7,1,NA,41.2,8,0.8,55,14.2,0,Smoke USFS R3-28,EBAM,FALSE,NA,FALSE,FALSE,FALSE,FALSE,FALSE,FALSE,FALSE,FALSE,FALSE,2026-08-31T00:00:00Z,-105.955574,35.671474,1
Smoke USFS R3-28, has 1 unique location(s)EBAM monitor## No CO data for this monitor
Currently disabled.
Please contact Jonathan Callahan or Gina Wing if you have ideas for additional functionality.